createdAt,value
2018-08-06T00:01:27.454Z,61.27
2018-08-06T00:04:05.764Z,63.83
2018-08-06T00:06:45.472Z,57.87
2018-08-06T00:09:24.815Z,62.07
2018-08-06T00:12:03.967Z,60.53
2018-08-06T00:14:42.892Z,70.97
2018-08-06T00:17:21.938Z,80.97
2018-08-06T00:20:00.562Z,75.07
2018-08-06T00:22:39.048Z,78.10
2018-08-06T00:25:20.013Z,75.10
2018-08-06T00:27:58.794Z,73.23
2018-08-06T00:30:37.458Z,78.10
2018-08-06T00:33:16.827Z,82.87
2018-08-06T00:35:56.003Z,82.33
2018-08-06T00:38:34.980Z,75.43
2018-08-06T00:41:13.966Z,82.30
2018-08-06T00:43:52.974Z,90.47
2018-08-06T00:46:30.807Z,79.90
2018-08-06T00:49:10.095Z,78.57
2018-08-06T00:51:49.091Z,83.00
2018-08-06T00:54:27.241Z,82.27
2018-08-06T00:57:05.765Z,78.13
2018-08-06T00:59:44.652Z,83.37
2018-08-06T01:02:23.379Z,87.40
2018-08-06T01:05:02.411Z,78.90
2018-08-06T01:07:41.842Z,80.67
2018-08-06T01:10:23.374Z,77.67
2018-08-06T01:13:02.456Z,79.10
2018-08-06T01:15:40.926Z,81.07
2018-08-06T01:18:20.496Z,77.10
2018-08-06T01:20:59.242Z,87.67
2018-08-06T01:23:38.240Z,73.00
2018-08-06T01:26:16.687Z,76.43
2018-08-06T01:28:55.697Z,75.20
2018-08-06T01:31:34.414Z,78.87
2018-08-06T01:34:13.134Z,84.23
2018-08-06T01:36:51.518Z,78.13
2018-08-06T01:39:30.260Z,78.43
2018-08-06T01:42:08.332Z,84.77
2018-08-06T01:44:46.747Z,80.40
2018-08-06T01:47:24.801Z,74.07
2018-08-06T01:50:03.248Z,77.13
2018-08-06T01:52:41.561Z,74.33
2018-08-06T01:55:19.764Z,70.90
2018-08-06T01:57:58.747Z,74.63
2018-08-06T02:00:37.490Z,73.50
2018-08-06T02:03:15.890Z,78.70
2018-08-06T02:05:54.338Z,76.03
2018-08-06T02:08:33.290Z,73.57
2018-08-06T02:11:12.049Z,71.37
2018-08-06T02:13:51.054Z,73.27
2018-08-06T02:16:29.837Z,84.37
2018-08-06T02:19:07.860Z,73.30
2018-08-06T02:21:46.654Z,78.07
2018-08-06T02:24:24.662Z,76.07
2018-08-06T02:27:03.685Z,74.23
2018-08-06T02:29:42.727Z,74.83
2018-08-06T02:32:21.780Z,78.17
2018-08-06T02:35:00.700Z,76.93
2018-08-06T02:37:39.246Z,79.17
2018-08-06T02:40:21.569Z,77.40
2018-08-06T02:43:00.161Z,79.13
2018-08-06T02:45:38.893Z,76.67
2018-08-06T02:48:17.606Z,72.37
2018-08-06T02:50:55.692Z,75.77
2018-08-06T02:53:34.414Z,77.30
2018-08-06T02:56:13.458Z,68.73
2018-08-06T02:58:54.760Z,70.60
2018-08-06T03:01:33.761Z,78.73
2018-08-06T03:04:12.530Z,78.90
2018-08-06T03:06:50.894Z,69.20
2018-08-06T03:09:29.622Z,69.43
2018-08-06T03:12:08.095Z,77.73
2018-08-06T03:14:47.122Z,71.30
2018-08-06T03:17:25.315Z,72.07
2018-08-06T03:20:03.246Z,68.53
2018-08-06T03:22:42.132Z,69.07
2018-08-06T03:25:23.125Z,64.87
2018-08-06T03:28:01.631Z,68.17
2018-08-06T03:30:40.654Z,62.33
2018-08-06T03:33:19.368Z,63.17
2018-08-06T03:35:57.871Z,67.57
2018-08-06T03:40:29.452Z,53.13
2018-08-06T03:43:07.537Z,46.97
2018-08-06T03:45:46.333Z,50.67
2018-08-06T03:48:25.299Z,49.63
2018-08-06T03:51:04.079Z,48.97
2018-08-06T03:53:42.972Z,44.23
2018-08-06T03:56:23.606Z,46.57
2018-08-06T03:59:02.085Z,43.57
2018-08-06T04:01:41.692Z,45.87
2018-08-06T04:04:21.060Z,51.70
2018-08-06T04:07:00.612Z,46.83
2018-08-06T04:09:39.931Z,45.53
2018-08-06T04:12:18.639Z,45.53
2018-08-06T04:14:57.369Z,47.43
2018-08-06T04:17:35.764Z,47.17
2018-08-06T04:20:16.081Z,54.37
2018-08-06T04:22:54.491Z,54.67
2018-08-06T04:25:32.000Z,48.90
2018-08-06T04:28:10.000Z,46.80
2018-08-06T04:30:45.994Z,43.87
2018-08-06T04:33:22.206Z,45.43
2018-08-06T04:35:58.164Z,45.50
2018-08-06T04:38:33.950Z,45.90
2018-08-06T04:41:10.142Z,55.33
2018-08-06T04:43:46.251Z,39.43
2018-08-06T04:46:22.676Z,37.80
2018-08-06T04:48:58.724Z,43.67
2018-08-06T04:51:34.651Z,41.70
2018-08-06T04:54:11.170Z,38.87
2018-08-06T04:56:46.886Z,36.60
2018-08-06T04:59:22.809Z,38.63
2018-08-06T05:01:59.529Z,38.53
2018-08-06T05:04:35.233Z,44.60
2018-08-06T05:07:11.138Z,36.27
2018-08-06T05:09:45.484Z,37.97
2018-08-06T05:12:21.524Z,35.33
2018-08-06T05:14:57.523Z,40.37
2018-08-06T05:17:33.360Z,41.67
2018-08-06T05:20:09.405Z,35.47
2018-08-06T05:22:45.913Z,41.93
2018-08-06T05:25:22.524Z,38.50
2018-08-06T05:27:59.284Z,39.23
2018-08-06T05:30:35.570Z,36.67
2018-08-06T05:33:11.809Z,39.87
2018-08-06T05:35:48.523Z,37.03
2018-08-06T05:38:25.694Z,33.40
2018-08-06T05:44:15.120Z,37.47
2018-08-06T05:46:52.010Z,32.83
2018-08-06T05:49:28.795Z,35.40
2018-08-06T05:52:04.890Z,32.33
2018-08-06T05:54:41.529Z,37.93
2018-08-06T05:57:18.253Z,34.97
2018-08-06T05:59:55.202Z,36.83
2018-08-06T06:02:34.563Z,35.47
2018-08-06T06:05:12.015Z,38.07
2018-08-06T06:07:48.002Z,39.93
2018-08-06T06:10:24.509Z,40.40
2018-08-06T06:13:01.051Z,36.87
2018-08-06T06:15:37.365Z,37.37
2018-08-06T06:18:14.161Z,36.87
2018-08-06T06:20:50.218Z,39.07
2018-08-06T06:23:26.688Z,32.43
2018-08-06T06:26:03.635Z,28.17
2018-08-06T06:28:40.638Z,35.10
2018-08-06T06:31:17.855Z,30.53
2018-08-06T06:33:56.898Z,26.03
2018-08-06T06:36:33.632Z,31.67
2018-08-06T06:39:13.681Z,29.20
2018-08-06T06:41:50.579Z,24.57
2018-08-06T06:44:27.554Z,21.13
2018-08-06T06:47:05.129Z,24.03
2018-08-06T06:49:43.204Z,25.40
2018-08-06T06:52:20.885Z,22.37
2018-08-06T06:54:58.321Z,18.87
2018-08-06T06:57:36.733Z,24.43
2018-08-06T07:00:14.355Z,25.67
2018-08-06T07:03:05.312Z,26.37
2018-08-06T07:05:44.614Z,24.60
2018-08-06T07:08:27.401Z,21.20
2018-08-06T07:11:05.422Z,22.40
2018-08-06T07:13:42.586Z,25.97
2018-08-06T07:16:18.963Z,28.50
2018-08-06T07:18:54.603Z,26.50
2018-08-06T07:21:30.529Z,30.00
2018-08-06T07:24:07.373Z,30.43
2018-08-06T07:26:43.387Z,30.20
2018-08-06T07:29:19.638Z,29.33
2018-08-06T07:31:56.088Z,32.47
2018-08-06T07:34:32.130Z,29.23
2018-08-06T07:37:08.130Z,32.17
2018-08-06T07:39:44.881Z,32.47
2018-08-06T07:42:21.083Z,31.10
2018-08-06T07:44:57.715Z,33.10
2018-08-06T07:47:33.458Z,38.17
2018-08-06T07:50:11.614Z,33.63
2018-08-06T07:52:47.688Z,33.60
2018-08-06T07:55:24.054Z,32.90
2018-08-06T07:58:00.957Z,33.57
2018-08-06T08:00:37.923Z,33.27
2018-08-06T08:03:14.319Z,32.20
2018-08-06T08:05:51.249Z,32.47
2018-08-06T08:08:27.854Z,31.03
2018-08-06T08:11:04.759Z,31.27
2018-08-06T08:13:41.766Z,33.63
2018-08-06T08:16:17.689Z,29.93
2018-08-06T08:18:54.201Z,29.37
2018-08-06T08:21:30.326Z,24.80
2018-08-06T08:24:06.553Z,25.00
2018-08-06T08:26:43.246Z,23.13
2018-08-06T08:29:19.810Z,21.93
2018-08-06T08:31:57.040Z,24.33
2018-08-06T08:34:33.942Z,20.93
2018-08-06T08:37:11.395Z,24.33
2018-08-06T08:39:47.718Z,25.80
2018-08-06T08:42:24.767Z,24.73
2018-08-06T08:45:00.763Z,22.60
2018-08-06T08:47:37.243Z,25.33
2018-08-06T08:50:14.488Z,22.60
2018-08-06T08:52:50.480Z,20.60
2018-08-06T08:55:27.480Z,21.13
2018-08-06T08:58:03.604Z,19.50
2018-08-06T09:00:39.977Z,19.00
2018-08-06T09:03:15.709Z,23.33
2018-08-06T09:05:52.886Z,21.63
2018-08-06T09:08:29.282Z,23.07
2018-08-06T09:11:05.683Z,24.67
2018-08-06T09:13:42.211Z,22.33
2018-08-06T09:16:18.280Z,24.30
2018-08-06T09:18:54.563Z,21.77
2018-08-06T09:21:30.924Z,23.20
2018-08-06T09:24:07.924Z,22.00
2018-08-06T09:26:44.247Z,26.10
2018-08-06T09:29:21.055Z,23.53
2018-08-06T09:31:59.130Z,23.17
2018-08-06T09:34:37.842Z,25.90
2018-08-06T09:37:16.336Z,26.47
2018-08-06T09:39:54.966Z,24.10
2018-08-06T09:42:34.326Z,23.47
2018-08-06T09:45:14.923Z,20.03
2018-08-06T09:47:54.095Z,22.67
2018-08-06T09:50:31.302Z,24.40
2018-08-06T09:53:09.520Z,21.63
2018-08-06T09:55:46.723Z,23.00
2018-08-06T09:58:25.040Z,25.20
2018-08-06T10:01:07.258Z,22.10
2018-08-06T10:03:45.385Z,21.23
2018-08-06T10:06:24.529Z,24.70
2018-08-06T10:09:02.562Z,28.97
2018-08-06T10:11:40.249Z,23.43
2018-08-06T10:14:18.004Z,21.73
2018-08-06T10:16:56.411Z,23.90
2018-08-06T10:19:34.755Z,24.83
2018-08-06T10:22:10.631Z,24.10
2018-08-06T10:24:46.468Z,19.83
2018-08-06T10:27:22.594Z,22.63
2018-08-06T10:29:58.761Z,23.50
2018-08-06T10:32:34.721Z,22.40
2018-08-06T10:35:12.896Z,24.20
2018-08-06T10:37:48.694Z,24.90
2018-08-06T10:40:25.527Z,21.17
2018-08-06T10:43:01.436Z,21.47
2018-08-06T10:45:37.493Z,24.87
2018-08-06T10:48:13.376Z,20.40
2018-08-06T10:50:49.159Z,30.13
2018-08-06T10:53:24.972Z,23.90
2018-08-06T10:56:01.453Z,25.67
2018-08-06T10:58:37.157Z,18.83
2018-08-06T11:01:13.092Z,22.73
2018-08-06T11:03:49.118Z,17.60
2018-08-06T11:06:25.403Z,20.50
2018-08-06T11:09:01.253Z,19.13
2018-08-06T11:11:37.195Z,17.67
2018-08-06T11:14:13.291Z,18.33
2018-08-06T11:16:49.576Z,22.37
2018-08-06T11:19:25.242Z,18.70
2018-08-06T11:22:00.963Z,21.80
2018-08-06T11:24:36.652Z,21.40
2018-08-06T11:27:15.055Z,22.57
2018-08-06T11:29:53.433Z,18.13
2018-08-06T11:32:31.450Z,22.43
2018-08-06T11:35:10.880Z,18.20
2018-08-06T11:37:48.989Z,15.93
2018-08-06T11:40:27.171Z,17.93
2018-08-06T11:43:06.003Z,18.40
2018-08-06T11:45:44.458Z,17.20
2018-08-06T11:48:23.448Z,16.30
2018-08-06T11:51:02.031Z,18.30
2018-08-06T11:53:40.299Z,19.20
2018-08-06T11:56:17.124Z,18.90
2018-08-06T11:58:54.808Z,17.63
2018-08-06T12:01:32.934Z,18.20
2018-08-06T12:04:11.049Z,19.27
2018-08-06T12:06:48.721Z,15.10
2018-08-06T12:09:26.483Z,16.37
2018-08-06T12:12:04.884Z,16.93
2018-08-06T12:14:42.317Z,17.83
2018-08-06T12:17:19.194Z,22.23
2018-08-06T12:19:57.206Z,20.77
2018-08-06T12:22:35.308Z,20.90
2018-08-06T12:25:14.288Z,19.53
2018-08-06T12:27:52.724Z,21.23
2018-08-06T12:30:30.606Z,20.47
2018-08-06T12:33:08.263Z,18.33
2018-08-06T12:35:46.217Z,20.47
2018-08-06T12:38:23.776Z,16.47
2018-08-06T12:41:01.634Z,16.00
2018-08-06T12:43:40.561Z,22.10
2018-08-06T12:46:19.746Z,17.73
2018-08-06T12:48:56.415Z,17.83
2018-08-06T12:51:34.297Z,21.00
2018-08-06T12:54:13.527Z,19.57
2018-08-06T12:56:51.331Z,18.87
2018-08-06T12:59:30.639Z,16.70
2018-08-06T13:02:08.312Z,21.97
2018-08-06T13:04:46.485Z,22.70
2018-08-06T13:07:24.318Z,26.33
2018-08-06T13:10:02.978Z,24.43
2018-08-06T13:12:42.408Z,25.50
2018-08-06T13:15:21.441Z,22.50
2018-08-06T13:17:59.429Z,23.03
2018-08-06T13:20:36.559Z,22.97
2018-08-06T13:23:15.289Z,27.10
2018-08-06T13:25:53.048Z,25.00
2018-08-06T13:28:30.878Z,24.73
2018-08-06T13:31:08.939Z,27.00
2018-08-06T13:33:46.758Z,23.67
2018-08-06T13:36:25.482Z,26.20
2018-08-06T13:39:03.830Z,24.13
2018-08-06T13:41:41.273Z,22.23
2018-08-06T13:44:17.806Z,23.10
2018-08-06T13:46:53.816Z,26.77
2018-08-06T13:49:30.889Z,28.23
2018-08-06T13:52:07.922Z,27.77
2018-08-06T13:54:44.729Z,25.77
2018-08-06T13:57:21.036Z,26.23
2018-08-06T13:59:56.978Z,25.83
2018-08-06T14:02:34.726Z,29.87
2018-08-06T14:05:13.120Z,23.73
2018-08-06T14:07:51.926Z,28.53
2018-08-06T14:10:28.440Z,24.33
2018-08-06T14:13:04.409Z,24.87
2018-08-06T14:15:40.814Z,33.50
2018-08-06T14:18:18.043Z,34.70
2018-08-06T14:20:56.891Z,33.10
2018-08-06T14:23:45.899Z,48.77
2018-08-06T14:26:23.634Z,44.27
2018-08-06T14:29:00.121Z,38.10
2018-08-06T14:31:38.109Z,32.43
2018-08-06T14:34:14.807Z,37.97
2018-08-06T14:36:51.932Z,39.03
2018-08-06T14:39:28.884Z,52.53
2018-08-06T14:42:04.827Z,43.70
2018-08-06T14:44:43.203Z,36.83
2018-08-06T14:47:19.579Z,33.73
2018-08-06T14:49:56.074Z,29.63
2018-08-06T14:53:56.601Z,40.87
2018-08-06T14:56:34.496Z,36.20
2018-08-06T14:59:11.133Z,36.17
2018-08-06T15:01:48.013Z,36.30
2018-08-06T15:04:24.248Z,33.10
2018-08-06T15:06:59.851Z,32.13
2018-08-06T15:09:37.735Z,36.83
2018-08-06T15:12:14.092Z,38.47
2018-08-06T15:14:50.194Z,32.00
2018-08-06T15:17:26.567Z,30.57
2018-08-06T15:20:04.963Z,29.83
2018-08-06T15:22:53.999Z,32.10
2018-08-06T15:25:51.601Z,35.90
2018-08-06T15:28:31.175Z,41.70
2018-08-06T15:31:08.924Z,38.40
2018-08-06T15:33:49.325Z,36.23
2018-08-06T15:36:28.242Z,32.50
2018-08-06T15:39:06.962Z,34.57
2018-08-06T15:41:45.684Z,36.80
2018-08-06T15:44:24.800Z,31.07
2018-08-06T15:47:02.624Z,37.17
2018-08-06T15:49:40.599Z,31.13
2018-08-06T15:52:18.761Z,30.90
2018-08-06T15:54:56.801Z,31.27
2018-08-06T15:57:46.799Z,30.23
2018-08-06T16:00:24.282Z,29.30
2018-08-06T16:03:02.165Z,29.47
2018-08-06T16:05:40.178Z,30.00
2018-08-06T16:08:17.373Z,25.00
2018-08-06T16:10:54.354Z,27.73
2018-08-06T16:13:32.134Z,23.00
2018-08-06T16:16:09.760Z,23.27
2018-08-06T16:18:48.401Z,27.03
2018-08-06T16:21:27.250Z,22.90
2018-08-06T16:24:05.526Z,24.97
2018-08-06T16:26:43.292Z,27.67
2018-08-06T16:29:21.767Z,22.60
2018-08-06T16:31:59.282Z,22.70
2018-08-06T16:34:38.960Z,23.40
2018-08-06T16:37:17.121Z,23.53
2018-08-06T16:39:53.764Z,23.80
2018-08-06T16:42:31.729Z,21.43
2018-08-06T16:45:12.400Z,26.13
2018-08-06T16:47:50.259Z,19.50
2018-08-06T16:50:29.207Z,18.63
2018-08-06T16:53:06.961Z,16.53
2018-08-06T16:55:47.205Z,23.47
2018-08-06T16:58:30.641Z,16.30
2018-08-06T17:01:09.536Z,16.70
2018-08-06T17:03:47.082Z,18.67
2018-08-06T17:06:25.590Z,18.63
2018-08-06T17:09:06.330Z,17.00
2018-08-06T17:11:44.807Z,16.37
2018-08-06T17:14:23.092Z,16.60
2018-08-06T17:17:09.895Z,15.80
2018-08-06T17:19:47.605Z,20.00
2018-08-06T17:22:24.690Z,14.33
2018-08-06T17:25:03.815Z,14.10
2018-08-06T17:27:41.165Z,15.23
2018-08-06T17:30:19.999Z,14.50
2018-08-06T17:32:58.130Z,15.67
2018-08-06T17:35:37.364Z,14.00
2018-08-06T17:38:15.763Z,14.77
2018-08-06T17:40:54.494Z,12.20
2018-08-06T17:43:34.174Z,13.00
2018-08-06T17:46:13.213Z,16.73
2018-08-06T17:48:52.247Z,14.17
2018-08-06T17:51:31.322Z,18.43
2018-08-06T17:54:09.362Z,15.70
2018-08-06T17:56:48.125Z,16.67
2018-08-06T17:59:27.044Z,13.27
2018-08-06T18:02:05.379Z,13.53
2018-08-06T18:04:44.251Z,13.77
2018-08-06T18:07:23.066Z,13.93
2018-08-06T18:10:01.706Z,13.27
2018-08-06T18:12:40.096Z,12.43
2018-08-06T18:15:18.251Z,10.77
2018-08-06T18:17:57.202Z,13.20
2018-08-06T18:20:36.163Z,15.80
2018-08-06T18:23:14.641Z,11.77
2018-08-06T18:25:52.011Z,18.03
2018-08-06T18:28:30.800Z,13.00
2018-08-06T18:31:09.525Z,12.97
2018-08-06T18:33:48.635Z,14.93
2018-08-06T18:36:27.289Z,12.37
2018-08-06T18:39:06.322Z,14.67
2018-08-06T18:41:44.731Z,15.53
2018-08-06T18:44:23.861Z,14.03
2018-08-06T18:47:01.652Z,16.73
2018-08-06T18:49:40.983Z,15.37
2018-08-06T18:52:19.695Z,13.87
2018-08-06T18:54:58.082Z,14.00
2018-08-06T18:57:37.681Z,16.40
2018-08-06T19:00:21.273Z,14.33
2018-08-06T19:02:59.518Z,16.90
2018-08-06T19:05:38.325Z,16.10
2018-08-06T19:08:17.362Z,14.07
2018-08-06T19:10:56.402Z,18.40
2018-08-06T19:13:38.345Z,16.70
2018-08-06T19:16:17.129Z,18.20
2018-08-06T19:18:57.379Z,14.27
2018-08-06T19:21:35.453Z,14.90
2018-08-06T19:24:16.407Z,19.57
2018-08-06T19:26:54.898Z,16.23
2018-08-06T19:29:33.213Z,15.53
2018-08-06T19:32:11.649Z,15.87
2018-08-06T19:34:50.637Z,15.27
2018-08-06T19:37:33.201Z,17.67
2018-08-06T19:40:12.537Z,14.07
2018-08-06T19:42:54.248Z,18.80
2018-08-06T19:45:33.574Z,15.87
2018-08-06T19:48:11.537Z,16.57
2018-08-06T19:50:49.963Z,15.63
2018-08-06T19:53:29.045Z,12.87
2018-08-06T19:56:11.289Z,14.47
2018-08-06T19:58:49.681Z,14.27
2018-08-06T20:01:29.053Z,15.60
2018-08-06T20:04:07.446Z,14.77
2018-08-06T20:06:45.850Z,17.03
2018-08-06T20:09:24.001Z,12.87
2018-08-06T20:12:02.640Z,13.30
2018-08-06T20:14:41.685Z,12.37
2018-08-06T20:17:20.483Z,9.93
2018-08-06T20:19:59.122Z,10.47
2018-08-06T20:22:38.170Z,9.53
2018-08-06T20:25:20.403Z,8.23
2018-08-06T20:27:58.582Z,8.80
2018-08-06T20:30:37.294Z,9.37
2018-08-06T20:33:16.284Z,9.57
2018-08-06T20:35:55.325Z,10.23
2018-08-06T20:38:33.775Z,7.40
2018-08-06T20:41:12.767Z,10.03
2018-08-06T20:43:51.118Z,11.17
2018-08-06T20:46:29.523Z,8.07
2018-08-06T20:49:08.172Z,12.10
2018-08-06T20:51:46.649Z,6.33
2018-08-06T20:54:24.832Z,6.37
2018-08-06T20:57:03.845Z,8.80
2018-08-06T20:59:42.250Z,7.57
2018-08-06T21:02:21.918Z,7.77
2018-08-06T21:05:00.883Z,11.00
2018-08-06T21:07:39.687Z,8.33
2018-08-06T21:10:19.388Z,9.60
2018-08-06T21:12:58.328Z,8.90
2018-08-06T21:15:37.038Z,10.23
2018-08-06T21:18:15.601Z,9.97
2018-08-06T21:20:53.847Z,9.50
2018-08-06T21:23:32.978Z,9.27
2018-08-06T21:26:11.283Z,9.83
2018-08-06T21:28:49.677Z,10.23
2018-08-06T21:31:27.441Z,10.80
2018-08-06T21:34:06.163Z,12.17
2018-08-06T21:36:44.949Z,12.97
2018-08-06T21:39:23.923Z,9.57
2018-08-06T21:42:02.038Z,9.30
2018-08-06T21:44:41.060Z,11.00
2018-08-06T21:47:19.127Z,8.90
2018-08-06T21:49:57.200Z,10.10
2018-08-06T21:52:35.605Z,11.80
2018-08-06T21:55:14.648Z,11.27
2018-08-06T21:57:53.445Z,11.67
2018-08-06T22:00:41.733Z,13.10
2018-08-06T22:03:24.563Z,13.47
2018-08-06T22:06:02.646Z,9.03
2018-08-06T22:08:41.041Z,12.53
2018-08-06T22:11:19.762Z,11.90
2018-08-06T22:13:58.193Z,11.80
2018-08-06T22:16:37.200Z,13.00
2018-08-06T22:19:15.599Z,12.30
2018-08-06T22:21:54.301Z,13.50
2018-08-06T22:24:32.159Z,12.80
2018-08-06T22:27:10.162Z,10.57
2018-08-06T22:29:48.879Z,14.30
2018-08-06T22:32:25.200Z,11.13
2018-08-06T22:35:02.445Z,12.73
2018-08-06T22:37:38.641Z,14.87
2018-08-06T22:40:16.307Z,12.00
2018-08-06T22:42:52.371Z,12.10
2018-08-06T22:45:29.043Z,14.37
2018-08-06T22:48:05.583Z,12.63
2018-08-06T22:50:41.469Z,13.53
2018-08-06T22:53:17.508Z,12.30
2018-08-06T22:56:01.853Z,14.97
2018-08-06T22:58:40.173Z,13.57
2018-08-06T23:01:19.014Z,11.63
2018-08-06T23:03:57.614Z,13.53
2018-08-06T23:06:35.659Z,10.93
2018-08-06T23:09:16.957Z,12.70
2018-08-06T23:11:55.939Z,14.70
2018-08-06T23:14:34.962Z,13.03
2018-08-06T23:17:13.417Z,14.53
2018-08-06T23:19:52.082Z,10.53
2018-08-06T23:22:30.483Z,13.00
2018-08-06T23:25:08.887Z,12.93
2018-08-06T23:27:47.280Z,10.07
2018-08-06T23:30:25.363Z,11.83
2018-08-06T23:33:04.161Z,10.63
2018-08-06T23:35:41.891Z,11.87
2018-08-06T23:38:19.934Z,13.70
2018-08-06T23:40:58.728Z,11.97
2018-08-06T23:43:37.357Z,12.60
2018-08-06T23:46:15.810Z,11.67
2018-08-06T23:48:54.214Z,12.93
2018-08-06T23:51:32.612Z,11.97
2018-08-06T23:54:10.725Z,10.60
2018-08-06T23:56:48.789Z,14.97
2018-08-06T23:59:27.212Z,12.47
